Time;durP1;ratioP1;P1;durP2;ratioP2;P2;SDS_P1;SDS_P2;PMS_P1;PMS_P2;Temp;Humidity;BMP_temperature;BMP_pressure;BME280_temperature;BME280_humidity;BME280_pressure;Samples;Min_cycle;Max_cycle;Signal;HPM_P1;HPM_P2
2023/05/11 00:01:51;;;;;;;5.30;2.30;;;15.40;68.60;;;;;;5051709;28;20032;-67
2023/05/11 00:04:17;;;;;;;5.35;1.95;;;15.40;68.50;;;;;;5051989;28;20060;-68
2023/05/11 00:06:43;;;;;;;3.22;2.08;;;15.30;68.70;;;;;;5053474;28;20033;-67
2023/05/11 00:09:10;;;;;;;6.13;2.22;;;15.30;68.80;;;;;;5055899;28;20025;-67
2023/05/11 00:11:36;;;;;;;3.67;2.47;;;15.30;68.90;;;;;;5055798;28;20033;-68
2023/05/11 00:14:02;;;;;;;3.38;2.00;;;15.30;69.30;;;;;;5055903;28;20189;-68
2023/05/11 00:16:27;;;;;;;3.67;2.38;;;15.30;69.40;;;;;;5056075;28;20040;-68
2023/05/11 00:18:53;;;;;;;1.98;1.77;;;15.30;69.10;;;;;;5057131;28;20025;-68
2023/05/11 00:21:19;;;;;;;2.10;1.90;;;15.30;69.40;;;;;;5057837;28;20036;-68
2023/05/11 00:23:45;;;;;;;4.57;2.22;;;15.30;69.60;;;;;;5057456;28;20047;-68
2023/05/11 00:26:10;;;;;;;5.60;2.30;;;15.30;69.40;;;;;;5057677;28;20021;-67
2023/05/11 00:28:36;;;;;;;5.72;2.20;;;15.30;69.60;;;;;;5056049;28;20410;-68
2023/05/11 00:31:01;;;;;;;5.82;2.53;;;15.30;70.20;;;;;;5055907;28;20033;-68
2023/05/11 00:33:27;;;;;;;5.32;2.20;;;15.30;69.80;;;;;;5055496;28;20378;-68
2023/05/11 00:35:53;;;;;;;7.15;2.08;;;15.20;70.00;;;;;;5055270;28;20450;-68
2023/05/11 00:38:19;;;;;;;5.15;2.20;;;15.20;70.00;;;;;;5055841;28;20104;-68
2023/05/11 00:40:44;;;;;;;3.90;2.20;;;15.10;70.20;;;;;;5054995;28;20476;-68
2023/05/11 00:43:10;;;;;;;5.07;2.42;;;15.20;70.50;;;;;;5055719;28;20100;-68
2023/05/11 00:45:36;;;;;;;4.15;2.40;;;15.10;70.50;;;;;;5054822;28;20486;-69
2023/05/11 00:48:02;;;;;;;4.82;2.38;;;15.10;70.40;;;;;;5055341;28;20470;-67
2023/05/11 00:50:28;;;;;;;5.65;2.50;;;15.10;70.50;;;;;;5055194;28;20029;-68
2023/05/11 00:52:55;;;;;;;2.47;2.20;;;15.20;70.50;;;;;;5055059;28;20025;-69
2023/05/11 00:55:21;;;;;;;4.32;2.42;;;15.10;70.80;;;;;;5053837;28;20056;-68
2023/05/11 00:57:47;;;;;;;3.17;2.63;;;15.10;70.60;;;;;;5055050;28;20025;-69
2023/05/11 01:00:13;;;;;;;3.17;2.10;;;15.10;70.80;;;;;;5055483;28;20043;-68
2023/05/11 01:02:40;;;;;;;3.17;2.20;;;15.10;70.70;;;;;;5054720;28;20036;-68
2023/05/11 01:05:06;;;;;;;6.30;2.78;;;15.10;70.80;;;;;;5055273;28;20036;-67
2023/05/11 01:07:42;;;;;;;2.83;1.90;;;15.10;71.00;;;;;;5055277;28;20017;-67
2023/05/11 01:10:22;;;;;;;4.88;2.40;;;15.10;71.20;;;;;;5054966;28;20043;-68
2023/05/11 01:13:24;;;;;;;6.47;2.40;;;15.00;71.40;;;;;;5054791;28;20029;-68
2023/05/11 01:15:52;;;;;;;3.10;2.25;;;15.00;71.60;;;;;;5054792;28;20025;-68
2023/05/11 01:18:39;;;;;;;5.57;2.17;;;15.00;71.50;;;;;;5054856;28;20051;-68
2023/05/11 01:21:05;;;;;;;6.10;2.42;;;15.00;71.80;;;;;;5054696;28;20473;-68
2023/05/11 01:24:00;;;;;;;7.25;2.40;;;15.00;72.20;;;;;;5054943;28;20047;-67
2023/05/11 01:26:51;;;;;;;2.95;2.20;;;15.00;72.20;;;;;;5054994;28;20025;-68
2023/05/11 01:29:54;;;;;;;3.45;2.40;;;14.90;72.40;;;;;;5054595;28;20044;-68
2023/05/11 01:32:24;;;;;;;4.40;2.33;;;14.90;72.30;;;;;;5054770;28;20064;-67
2023/05/11 01:35:19;;;;;;;6.40;2.42;;;14.90;72.40;;;;;;5054382;28;20473;-67
2023/05/11 01:37:48;;;;;;;4.47;2.05;;;14.90;72.40;;;;;;5053610;28;20090;-68
2023/05/11 01:40:20;;;;;;;10.52;2.70;;;14.90;72.70;;;;;;5054840;28;20548;-68
2023/05/11 01:42:52;;;;;;;2.58;2.10;;;14.90;72.90;;;;;;5054286;28;20028;-68
2023/05/11 01:45:19;;;;;;;4.20;2.38;;;14.90;73.00;;;;;;5054227;28;20478;-68
2023/05/11 01:47:47;;;;;;;3.53;2.40;;;14.90;73.00;;;;;;5054215;28;20470;-68
2023/05/11 01:50:15;;;;;;;4.25;2.40;;;14.90;73.10;;;;;;5054285;28;20032;-68
2023/05/11 01:52:42;;;;;;;4.15;2.40;;;14.80;73.10;;;;;;5053907;28;20366;-68
2023/05/11 01:55:09;;;;;;;7.82;2.53;;;14.90;73.40;;;;;;5054495;28;20058;-68
2023/05/11 01:57:37;;;;;;;5.07;2.40;;;14.80;73.50;;;;;;5053888;28;20025;-68
2023/05/11 02:00:03;;;;;;;4.68;2.50;;;14.80;74.10;;;;;;5053701;28;20025;-67
2023/05/11 02:02:30;;;;;;;3.30;2.40;;;14.70;74.50;;;;;;5053685;28;20056;-68
2023/05/11 02:04:58;;;;;;;5.07;2.45;;;14.60;74.90;;;;;;5052861;28;20025;-67
2023/05/11 02:07:26;;;;;;;2.67;2.40;;;14.60;75.00;;;;;;5054175;28;20029;-67
2023/05/11 02:09:53;;;;;;;2.70;2.20;;;14.60;75.20;;;;;;5053552;28;20067;-67
2023/05/11 02:12:21;;;;;;;5.05;2.63;;;14.60;75.40;;;;;;5053646;28;20466;-67
2023/05/11 02:14:50;;;;;;;3.50;2.53;;;14.60;75.60;;;;;;5053857;28;20454;-67
2023/05/11 02:17:17;;;;;;;4.75;2.35;;;14.60;75.70;;;;;;5053775;28;20493;-67
2023/05/11 02:19:44;;;;;;;5.07;2.58;;;14.60;75.70;;;;;;5053395;28;20036;-68
2023/05/11 02:22:11;;;;;;;7.38;2.65;;;14.60;75.70;;;;;;5053763;28;20463;-68
2023/05/11 02:24:37;;;;;;;6.32;2.47;;;14.50;76.10;;;;;;5053793;28;20163;-68
2023/05/11 02:27:03;;;;;;;6.13;2.50;;;14.50;76.50;;;;;;5053563;28;20025;-68
2023/05/11 02:29:29;;;;;;;3.13;2.55;;;14.50;76.70;;;;;;5052767;28;20037;-68
2023/05/11 02:32:16;;;;;;;5.00;2.60;;;14.50;76.70;;;;;;5052924;28;20025;-68
2023/05/11 02:34:46;;;;;;;6.15;2.60;;;14.50;76.70;;;;;;5053204;28;20029;-69
2023/05/11 02:37:18;;;;;;;4.68;3.08;;;14.50;77.10;;;;;;5053855;28;20032;-68
2023/05/11 02:39:47;;;;;;;3.97;2.72;;;14.50;77.10;;;;;;5052815;28;20048;-68
2023/05/11 02:42:20;;;;;;;7.00;2.85;;;14.50;77.10;;;;;;5053361;28;20021;-68
2023/05/11 02:45:15;;;;;;;6.95;3.00;;;14.50;77.20;;;;;;5052700;28;20489;-68
2023/05/11 02:48:04;;;;;;;4.80;2.90;;;14.50;77.10;;;;;;5051956;28;20402;-71
2023/05/11 02:50:32;;;;;;;6.22;2.67;;;14.50;76.80;;;;;;5051971;28;20497;-68
2023/05/11 02:53:02;;;;;;;5.28;2.63;;;14.40;77.20;;;;;;5051721;28;20071;-68
2023/05/11 02:55:29;;;;;;;5.47;2.88;;;14.40;77.40;;;;;;5053532;28;20028;-68
2023/05/11 02:57:55;;;;;;;5.90;2.97;;;14.40;77.50;;;;;;5052554;28;20029;-69
2023/05/11 03:00:21;;;;;;;4.00;3.00;;;14.40;77.70;;;;;;5051511;28;20090;-67
2023/05/11 03:02:47;;;;;;;5.18;3.22;;;14.30;77.90;;;;;;5052927;28;20036;-68
2023/05/11 03:05:12;;;;;;;4.70;3.05;;;14.30;78.10;;;;;;5052988;28;20457;-68
2023/05/11 03:07:38;;;;;;;3.55;2.55;;;14.30;78.10;;;;;;5053278;28;20075;-68
2023/05/11 03:10:04;;;;;;;5.32;2.90;;;14.30;78.60;;;;;;5052425;28;20072;-67
2023/05/11 03:12:32;;;;;;;3.67;3.00;;;14.30;78.70;;;;;;5052921;28;20492;-66
2023/05/11 03:14:59;;;;;;;6.13;2.80;;;14.20;79.00;;;;;;5052169;28;20029;-68
2023/05/11 03:17:27;;;;;;;3.92;2.55;;;14.20;79.10;;;;;;5051532;28;20035;-68
2023/05/11 03:19:55;;;;;;;3.45;3.15;;;14.20;79.00;;;;;;5052499;28;20029;-68
2023/05/11 03:22:22;;;;;;;5.47;2.80;;;14.20;79.20;;;;;;5052764;28;20036;-68
2023/05/11 03:24:48;;;;;;;6.70;2.90;;;14.20;79.40;;;;;;5052432;28;20033;-69
2023/05/11 03:27:15;;;;;;;12.95;3.10;;;14.10;79.50;;;;;;5052769;28;20017;-68
2023/05/11 03:29:43;;;;;;;5.30;2.97;;;14.10;79.70;;;;;;5052648;28;20025;-68
2023/05/11 03:32:09;;;;;;;6.22;3.13;;;14.10;79.70;;;;;;5052827;28;20032;-66
2023/05/11 03:34:34;;;;;;;4.75;3.30;;;14.10;79.80;;;;;;5052307;28;20029;-67
2023/05/11 03:37:03;;;;;;;5.63;3.05;;;14.10;80.00;;;;;;5051876;28;20021;-68
2023/05/11 03:39:31;;;;;;;4.70;3.00;;;14.00;80.30;;;;;;5052587;28;20098;-67
2023/05/11 03:41:58;;;;;;;6.32;3.30;;;14.00;80.50;;;;;;5052005;28;20021;-68
2023/05/11 03:44:24;;;;;;;4.00;3.00;;;14.00;80.50;;;;;;5052555;28;20036;-67
2023/05/11 03:46:52;;;;;;;4.93;3.33;;;14.00;80.50;;;;;;5051971;28;20033;-68
2023/05/11 03:49:18;;;;;;;4.18;3.00;;;14.00;80.60;;;;;;5052041;28;20075;-68
2023/05/11 03:51:45;;;;;;;7.15;3.53;;;14.00;80.50;;;;;;5052169;28;20017;-68
2023/05/11 03:54:11;;;;;;;3.70;3.00;;;14.00;80.70;;;;;;5052443;28;20112;-68
2023/05/11 03:56:40;;;;;;;5.78;3.05;;;14.00;80.60;;;;;;5052432;28;20061;-68
2023/05/11 03:59:07;;;;;;;5.03;3.40;;;14.10;80.60;;;;;;5052060;28;20353;-69
2023/05/11 04:01:33;;;;;;;8.15;3.35;;;14.00;81.00;;;;;;5052488;28;20060;-68
2023/05/11 04:03:59;;;;;;;3.78;2.88;;;14.10;80.60;;;;;;5051747;28;20055;-67
2023/05/11 04:06:24;;;;;;;5.07;3.08;;;14.10;80.60;;;;;;5052445;28;20026;-67
2023/05/11 04:08:50;;;;;;;5.75;2.80;;;14.20;80.70;;;;;;5051343;28;20025;-68
2023/05/11 04:11:15;;;;;;;4.95;3.25;;;14.20;80.60;;;;;;5051608;28;20115;-68
2023/05/11 04:13:41;;;;;;;6.05;3.00;;;14.20;80.30;;;;;;5052018;28;20029;-68
2023/05/11 04:16:07;;;;;;;5.78;3.30;;;14.20;80.30;;;;;;5051718;28;20037;-67
2023/05/11 04:18:33;;;;;;;8.48;3.38;;;14.30;80.20;;;;;;5052231;28;20449;-67
2023/05/11 04:20:59;;;;;;;10.00;3.30;;;14.30;80.20;;;;;;5051852;28;20036;-68
2023/05/11 04:23:24;;;;;;;4.72;3.28;;;14.30;80.50;;;;;;5051787;28;20025;-68
2023/05/11 04:25:53;;;;;;;8.23;3.03;;;14.30;79.90;;;;;;5051736;28;20021;-68
2023/05/11 04:28:21;;;;;;;5.55;3.40;;;14.40;79.60;;;;;;5052091;28;20110;-68
2023/05/11 04:30:55;;;;;;;4.15;3.22;;;14.40;80.00;;;;;;5051905;28;20045;-68
2023/05/11 04:33:21;;;;;;;6.45;3.58;;;14.30;79.70;;;;;;5051987;28;20029;-68
2023/05/11 04:35:52;;;;;;;6.82;3.30;;;14.40;79.50;;;;;;5052103;28;20029;-67
2023/05/11 04:38:19;;;;;;;4.30;2.85;;;14.30;79.50;;;;;;5052024;28;20037;-68
2023/05/11 04:40:45;;;;;;;4.97;3.35;;;14.40;79.40;;;;;;5051953;28;20472;-67
2023/05/11 04:43:11;;;;;;;8.52;3.22;;;14.40;79.10;;;;;;5051475;28;20035;-67
2023/05/11 04:45:37;;;;;;;7.35;3.13;;;14.40;79.20;;;;;;5051804;28;20045;-68
2023/05/11 04:48:02;;;;;;;5.55;3.30;;;14.50;79.30;;;;;;5051223;28;20025;-67
2023/05/11 04:50:28;;;;;;;8.15;3.75;;;14.50;79.60;;;;;;5051680;28;20136;-67
2023/05/11 04:52:54;;;;;;;4.43;3.17;;;14.50;79.50;;;;;;5051610;28;20025;-67
2023/05/11 04:55:20;;;;;;;8.05;3.05;;;14.60;79.40;;;;;;5055413;28;20055;-67
2023/05/11 04:57:45;;;;;;;8.57;3.22;;;14.70;79.30;;;;;;5055320;28;20457;-67
2023/05/11 05:00:11;;;;;;;7.88;3.03;;;14.70;79.00;;;;;;5053537;28;20028;-67
2023/05/11 05:02:37;;;;;;;7.80;3.35;;;14.80;79.10;;;;;;5054986;28;20029;-67
2023/05/11 05:05:03;;;;;;;7.43;3.47;;;14.90;79.20;;;;;;5054614;28;20485;-68
2023/05/11 05:07:28;;;;;;;6.03;3.00;;;15.00;79.30;;;;;;5054881;28;20393;-68
2023/05/11 05:09:54;;;;;;;8.98;3.55;;;15.10;78.70;;;;;;5055140;28;20116;-68
2023/05/11 05:12:20;;;;;;;8.45;3.58;;;15.20;78.10;;;;;;5055400;28;20032;-68
2023/05/11 05:14:45;;;;;;;6.03;3.10;;;15.30;77.10;;;;;;5055258;28;20365;-67
2023/05/11 05:17:11;;;;;;;9.20;4.03;;;15.40;76.90;;;;;;5054622;28;20401;-67
2023/05/11 05:19:36;;;;;;;4.22;3.25;;;15.50;76.80;;;;;;5054897;28;20033;-67
2023/05/11 05:22:02;;;;;;;6.13;3.38;;;15.50;75.90;;;;;;5054559;28;20029;-68
2023/05/11 05:24:28;;;;;;;6.43;3.92;;;15.60;75.70;;;;;;5054765;28;20025;-69
2023/05/11 05:26:53;;;;;;;6.65;3.75;;;15.80;74.90;;;;;;5054630;28;20032;-69
2023/05/11 05:29:19;;;;;;;5.47;3.40;;;15.90;75.10;;;;;;5054571;28;20040;-68
2023/05/11 05:31:45;;;;;;;8.00;3.60;;;16.10;73.80;;;;;;5054696;28;20029;-67
2023/05/11 05:34:10;;;;;;;5.55;3.35;;;16.20;72.70;;;;;;5054030;28;20458;-68
2023/05/11 05:36:37;;;;;;;8.15;3.88;;;16.40;72.60;;;;;;5054395;28;20473;-69
2023/05/11 05:39:07;;;;;;;5.97;3.80;;;16.60;72.00;;;;;;5052987;28;20370;-69
2023/05/11 05:41:33;;;;;;;5.22;3.55;;;16.80;72.00;;;;;;5054566;28;20033;-69
2023/05/11 05:43:58;;;;;;;10.95;3.70;;;16.90;69.90;;;;;;5054215;28;20044;-69
2023/05/11 05:46:24;;;;;;;6.53;3.83;;;17.00;69.50;;;;;;5054292;28;20385;-68
2023/05/11 05:48:50;;;;;;;9.90;3.20;;;17.10;69.40;;;;;;5054332;28;20095;-68
2023/05/11 05:51:15;;;;;;;8.23;3.53;;;17.20;68.90;;;;;;5052597;28;20127;-68
2023/05/11 05:53:41;;;;;;;5.80;3.50;;;17.30;68.40;;;;;;5053999;28;20102;-68
2023/05/11 05:56:07;;;;;;;6.68;3.65;;;17.40;67.80;;;;;;5053865;28;20378;-68
2023/05/11 05:58:32;;;;;;;5.93;3.63;;;17.50;66.90;;;;;;5053898;28;20028;-67
2023/05/11 06:00:58;;;;;;;5.15;3.20;;;17.60;65.20;;;;;;5053712;28;20083;-69
2023/05/11 06:03:24;;;;;;;8.10;3.60;;;17.70;64.90;;;;;;5053370;28;20037;-68
2023/05/11 06:05:50;;;;;;;8.80;3.30;;;17.80;64.20;;;;;;5053459;28;20031;-68
2023/05/11 06:08:15;;;;;;;6.47;3.55;;;17.80;64.40;;;;;;5053334;28;20140;-68
2023/05/11 06:10:41;;;;;;;4.30;3.25;;;17.90;64.10;;;;;;5053924;28;20029;-67
2023/05/11 06:13:07;;;;;;;6.22;3.45;;;18.00;63.50;;;;;;5053802;28;20060;-67
2023/05/11 06:15:32;;;;;;;5.68;3.63;;;18.20;63.60;;;;;;5051491;28;20563;-68
2023/05/11 06:17:58;;;;;;;4.55;3.08;;;18.30;62.00;;;;;;5053080;28;20384;-68
2023/05/11 06:20:24;;;;;;;7.10;3.40;;;18.50;62.50;;;;;;5053494;28;20049;-67
2023/05/11 06:22:49;;;;;;;7.47;3.30;;;18.70;62.00;;;;;;5053398;28;20029;-67
2023/05/11 06:25:15;;;;;;;5.70;3.10;;;18.90;60.90;;;;;;5053357;28;20049;-67
2023/05/11 06:27:41;;;;;;;6.28;3.17;;;19.20;60.60;;;;;;5053303;28;20028;-68
2023/05/11 06:30:07;;;;;;;5.95;3.28;;;19.30;59.40;;;;;;5053141;28;20044;-69
2023/05/11 06:32:33;;;;;;;4.72;3.30;;;19.50;58.70;;;;;;5053728;28;20029;-68
2023/05/11 06:34:58;;;;;;;5.28;2.63;;;19.70;58.50;;;;;;5053174;28;20082;-69
2023/05/11 06:37:24;;;;;;;5.43;3.22;;;20.00;57.60;;;;;;5053445;28;20029;-68
2023/05/11 06:39:50;;;;;;;5.22;3.40;;;20.30;56.60;;;;;;5053464;28;20032;-68
2023/05/11 06:42:16;;;;;;;6.63;2.90;;;20.40;54.90;;;;;;5053098;28;20035;-68
2023/05/11 06:44:41;;;;;;;3.15;2.85;;;20.30;54.90;;;;;;5052149;28;20065;-68
2023/05/11 06:47:07;;;;;;;6.82;3.17;;;20.20;54.90;;;;;;5052968;28;20032;-68
2023/05/11 06:49:33;;;;;;;5.25;3.35;;;19.90;55.40;;;;;;5053100;28;20044;-68
2023/05/11 06:51:59;;;;;;;4.75;2.92;;;19.90;56.50;;;;;;5052849;28;20029;-70
2023/05/11 06:54:24;;;;;;;6.53;3.63;;;19.60;55.80;;;;;;5053180;28;20025;-68
2023/05/11 06:56:50;;;;;;;7.68;3.28;;;19.40;56.70;;;;;;5052889;28;20057;-68
2023/05/11 06:59:16;;;;;;;6.97;2.80;;;19.20;56.40;;;;;;5052664;28;20078;-68
2023/05/11 07:01:42;;;;;;;8.93;3.50;;;19.10;57.20;;;;;;5052861;28;20076;-68
2023/05/11 07:04:07;;;;;;;7.55;3.05;;;18.90;58.10;;;;;;5052744;28;20473;-68
2023/05/11 07:06:33;;;;;;;6.32;3.63;;;18.70;58.40;;;;;;5052689;28;20040;-68
2023/05/11 07:08:59;;;;;;;7.25;3.35;;;18.60;59.40;;;;;;5052964;28;20033;-68
2023/05/11 07:11:25;;;;;;;8.20;3.20;;;18.50;59.00;;;;;;5052631;28;20469;-68
2023/05/11 07:13:50;;;;;;;5.63;3.05;;;18.40;59.40;;;;;;5052857;28;20031;-68
2023/05/11 07:16:16;;;;;;;6.35;3.30;;;18.40;60.20;;;;;;5052098;28;20059;-68
2023/05/11 07:18:42;;;;;;;7.10;3.40;;;18.60;60.00;;;;;;5052693;28;20032;-68
2023/05/11 07:21:07;;;;;;;6.45;2.92;;;18.90;60.20;;;;;;5052414;28;20036;-68
2023/05/11 07:23:33;;;;;;;7.03;3.25;;;19.00;58.80;;;;;;5052896;28;20039;-68
2023/05/11 07:25:59;;;;;;;4.30;2.88;;;19.30;58.30;;;;;;5053326;28;20373;-67
2023/05/11 07:28:24;;;;;;;10.45;3.10;;;19.40;57.60;;;;;;5053296;28;20025;-68
2023/05/11 07:30:50;;;;;;;4.95;3.42;;;19.80;57.70;;;;;;5052289;28;20099;-68
2023/05/11 07:33:16;;;;;;;4.38;2.78;;;20.00;55.80;;;;;;5053054;28;20386;-68
2023/05/11 07:35:42;;;;;;;6.10;3.47;;;20.20;55.30;;;;;;5051334;28;20025;-68
2023/05/11 07:38:10;;;;;;;3.83;3.05;;;20.40;55.20;;;;;;5051822;28;20032;-68
2023/05/11 07:40:36;;;;;;;5.50;3.15;;;20.70;54.10;;;;;;5052080;28;20097;-67
2023/05/11 07:43:02;;;;;;;5.45;2.78;;;21.20;53.80;;;;;;5052436;28;20514;-68
2023/05/11 07:45:27;;;;;;;4.25;3.05;;;21.70;52.10;;;;;;5052280;28;20053;-68
2023/05/11 07:47:53;;;;;;;5.72;3.15;;;21.90;51.80;;;;;;5052050;28;20151;-68
2023/05/11 07:50:18;;;;;;;6.82;2.88;;;22.30;51.10;;;;;;5051969;28;20036;-69
2023/05/11 07:52:44;;;;;;;4.28;2.90;;;22.30;50.00;;;;;;5052353;28;20381;-68
2023/05/11 07:55:10;;;;;;;6.90;3.10;;;22.30;49.40;;;;;;5051663;28;20025;-68
2023/05/11 07:57:36;;;;;;;6.82;3.05;;;22.00;49.40;;;;;;5052460;28;20025;-67
2023/05/11 08:00:02;;;;;;;7.45;3.20;;;21.80;50.30;;;;;;5052240;28;20033;-68
2023/05/11 08:02:28;;;;;;;8.50;3.20;;;21.50;51.30;;;;;;5052264;28;20051;-68
2023/05/11 08:04:53;;;;;;;3.65;2.95;;;21.30;52.00;;;;;;5050434;28;20021;-68
2023/05/11 08:07:19;;;;;;;7.50;4.00;;;21.30;52.80;;;;;;5051518;28;20032;-68
2023/05/11 08:09:44;;;;;;;5.88;3.20;;;21.10;52.00;;;;;;5051957;28;20086;-68
2023/05/11 08:12:10;;;;;;;5.30;3.33;;;21.00;52.90;;;;;;5051810;28;20071;-68
2023/05/11 08:14:36;;;;;;;7.85;3.40;;;20.90;53.80;;;;;;5052197;28;20033;-68
2023/05/11 08:17:02;;;;;;;5.20;3.50;;;20.90;52.60;;;;;;5052192;28;20112;-69
2023/05/11 08:19:27;;;;;;;8.52;3.10;;;20.90;53.40;;;;;;5051359;28;20061;-68
2023/05/11 08:21:53;;;;;;;9.82;3.88;;;21.00;53.20;;;;;;5052020;28;20033;-68
2023/05/11 08:24:18;;;;;;;11.93;3.63;;;20.90;52.80;;;;;;5051393;28;20024;-68
2023/05/11 08:26:44;;;;;;;8.18;3.70;;;20.90;52.80;;;;;;5051719;28;20017;-68
2023/05/11 08:29:11;;;;;;;6.82;3.47;;;20.70;53.40;;;;;;5054697;28;20033;-68
2023/05/11 08:31:37;;;;;;;7.93;3.35;;;20.60;53.70;;;;;;5054375;28;20040;-67
2023/05/11 08:34:03;;;;;;;9.32;3.45;;;20.50;54.30;;;;;;5055381;28;20104;-68
2023/05/11 08:36:29;;;;;;;7.50;3.78;;;20.50;55.10;;;;;;5055139;28;20041;-69
2023/05/11 08:38:55;;;;;;;9.85;3.78;;;20.50;54.80;;;;;;5055479;28;20078;-69
2023/05/11 08:41:22;;;;;;;5.57;3.60;;;20.40;54.80;;;;;;5055341;28;20079;-69
2023/05/11 08:43:48;;;;;;;5.13;3.28;;;20.30;55.10;;;;;;5055236;28;20025;-69
2023/05/11 08:46:21;;;;;;;5.40;3.10;;;20.20;55.40;;;;;;5055258;28;20152;-69
2023/05/11 08:48:47;;;;;;;9.02;3.60;;;20.20;55.40;;;;;;5055548;28;20481;-69
2023/05/11 08:51:12;;;;;;;5.32;3.53;;;20.20;55.30;;;;;;5055070;28;20032;-69
2023/05/11 08:53:38;;;;;;;6.90;3.35;;;20.20;55.20;;;;;;5055168;28;20033;-69
2023/05/11 08:56:07;;;;;;;4.20;3.03;;;20.20;54.50;;;;;;5055602;28;20021;-68
2023/05/11 08:58:36;;;;;;;4.97;3.42;;;20.10;54.20;;;;;;5055314;28;20397;-69
2023/05/11 09:01:03;;;;;;;5.38;3.72;;;20.00;54.50;;;;;;5054918;28;20031;-68
2023/05/11 09:03:30;;;;;;;4.93;3.30;;;20.00;54.80;;;;;;5054720;28;20091;-68
2023/05/11 09:05:57;;;;;;;5.65;3.40;;;20.00;54.20;;;;;;5054815;28;20474;-67
2023/05/11 09:08:26;;;;;;;5.57;2.80;;;19.90;54.40;;;;;;5054690;28;20078;-69
2023/05/11 09:10:52;;;;;;;7.20;2.90;;;19.80;54.60;;;;;;5055052;28;20497;-68
2023/05/11 09:13:18;;;;;;;6.20;2.60;;;19.70;54.50;;;;;;5054771;28;20025;-69
2023/05/11 09:15:44;;;;;;;4.40;3.15;;;19.50;54.50;;;;;;5055063;28;20017;-67
2023/05/11 09:18:10;;;;;;;2.65;2.45;;;19.40;54.60;;;;;;5054303;28;20106;-68
2023/05/11 09:20:35;;;;;;;4.10;2.40;;;19.30;54.80;;;;;;5054562;28;20028;-67
2023/05/11 09:23:01;;;;;;;3.08;2.42;;;19.30;54.90;;;;;;5054814;28;20108;-68
2023/05/11 09:25:32;;;;;;;4.85;2.17;;;19.20;53.00;;;;;;5054369;28;20465;-69
2023/05/11 09:27:58;;;;;;;6.05;2.15;;;19.10;51.70;;;;;;5054899;28;20024;-68
2023/05/11 09:30:24;;;;;;;4.47;2.45;;;19.00;51.80;;;;;;5054176;28;20539;-69
2023/05/11 09:33:01;;;;;;;6.20;2.35;;;19.00;52.30;;;;;;5054714;28;20036;-68
2023/05/11 09:35:32;;;;;;;6.88;2.30;;;19.00;52.80;;;;;;5054305;28;20113;-68
2023/05/11 09:38:06;;;;;;;4.90;2.08;;;19.00;52.90;;;;;;5054197;28;20405;-68
2023/05/11 09:40:36;;;;;;;4.32;2.35;;;19.10;53.00;;;;;;5054055;28;20041;-68
2023/05/11 09:43:14;;;;;;;4.68;2.33;;;19.20;52.90;;;;;;5054468;28;20025;-68
2023/05/11 09:45:45;;;;;;;5.47;2.65;;;19.20;52.90;;;;;;5054062;28;20060;-68
2023/05/11 09:48:20;;;;;;;4.72;2.17;;;19.20;51.40;;;;;;5054338;28;20100;-70
2023/05/11 09:50:51;;;;;;;3.58;2.17;;;19.30;51.70;;;;;;5054221;28;20476;-68
2023/05/11 09:53:17;;;;;;;7.97;1.90;;;19.30;52.70;;;;;;5052607;28;20407;-69
2023/05/11 09:55:54;;;;;;;3.20;2.15;;;19.40;52.00;;;;;;5054126;28;20033;-69
2023/05/11 09:58:19;;;;;;;6.65;2.22;;;19.40;52.00;;;;;;5053908;28;20374;-69
2023/05/11 10:00:52;;;;;;;3.88;2.35;;;19.30;51.80;;;;;;5053749;28;20025;-69
2023/05/11 10:03:18;;;;;;;4.97;2.08;;;19.30;51.30;;;;;;5053977;28;20056;-69
2023/05/11 10:06:00;;;;;;;4.47;2.03;;;19.20;51.20;;;;;;5053962;28;20035;-69
2023/05/11 10:08:30;;;;;;;3.70;2.10;;;19.20;51.20;;;;;;5053644;28;20025;-69
2023/05/11 10:10:56;;;;;;;4.17;2.17;;;19.30;51.10;;;;;;5053614;28;20474;-68
2023/05/11 10:13:23;;;;;;;6.68;2.17;;;19.40;51.00;;;;;;5053497;28;20253;-69
2023/05/11 10:15:51;;;;;;;5.07;1.73;;;19.50;52.20;;;;;;5053892;28;20420;-68
2023/05/11 10:18:17;;;;;;;3.55;1.83;;;19.50;51.00;;;;;;5053425;28;20119;-68
2023/05/11 10:20:43;;;;;;;2.75;1.85;;;19.50;50.70;;;;;;5053676;28;20029;-68
2023/05/11 10:23:10;;;;;;;8.20;2.10;;;19.60;50.70;;;;;;5053509;28;20032;-68
2023/05/11 10:25:37;;;;;;;3.95;2.20;;;19.60;50.60;;;;;;5053345;28;20021;-68
2023/05/11 10:28:03;;;;;;;2.67;1.90;;;19.70;51.10;;;;;;5052478;28;20534;-68
2023/05/11 10:30:30;;;;;;;3.38;2.22;;;19.80;50.80;;;;;;5053109;28;20114;-68
2023/05/11 10:32:56;;;;;;;2.45;1.77;;;19.90;50.60;;;;;;5053666;28;20025;-68
2023/05/11 10:35:22;;;;;;;2.58;1.60;;;20.00;50.30;;;;;;5053159;28;20028;-68
2023/05/11 10:37:49;;;;;;;5.13;2.03;;;20.10;50.50;;;;;;5053548;28;20027;-68
2023/05/11 10:40:15;;;;;;;5.20;2.28;;;20.10;49.80;;;;;;5053194;28;20545;-68
2023/05/11 10:42:43;;;;;;;6.65;2.17;;;20.10;50.20;;;;;;5053297;28;20024;-68
2023/05/11 10:45:42;;;;;;;3.67;2.40;;;20.20;50.00;;;;;;5053238;28;20041;-68
2023/05/11 10:48:10;;;;;;;6.13;2.58;;;20.30;50.00;;;;;;5053386;28;20044;-68
2023/05/11 10:51:10;;;;;;;4.50;2.63;;;20.40;51.10;;;;;;5052293;28;20067;-68
2023/05/11 10:53:48;;;;;;;3.17;2.38;;;20.10;51.30;;;;;;5051688;28;20382;-68
2023/05/11 10:56:40;;;;;;;5.50;2.33;;;20.20;52.00;;;;;;5053811;28;20032;-68
2023/05/11 10:59:36;;;;;;;2.38;2.17;;;20.20;51.10;;;;;;5053509;28;20028;-68
2023/05/11 11:02:02;;;;;;;5.00;2.30;;;20.20;50.90;;;;;;5054333;28;20029;-68
2023/05/11 11:04:45;;;;;;;2.80;2.15;;;20.10;50.70;;;;;;5054522;28;20025;-68
2023/05/11 11:07:15;;;;;;;5.00;2.13;;;20.00;50.40;;;;;;5054095;28;20056;-68
2023/05/11 11:09:51;;;;;;;2.90;2.50;;;20.00;49.90;;;;;;5054044;28;20043;-68
2023/05/11 11:12:17;;;;;;;4.63;2.13;;;20.00;49.90;;;;;;5052720;28;20029;-68
2023/05/11 11:15:05;;;;;;;4.93;2.33;;;19.90;50.00;;;;;;5052752;28;20473;-68
2023/05/11 11:17:33;;;;;;;4.07;2.03;;;19.80;50.60;;;;;;5052351;28;20029;-68
2023/05/11 11:20:08;;;;;;;2.22;1.65;;;19.70;50.10;;;;;;5052581;28;20112;-68
2023/05/11 11:22:34;;;;;;;5.43;2.08;;;19.70;50.30;;;;;;5051052;28;20116;-68
2023/05/11 11:25:01;;;;;;;4.97;2.30;;;19.70;51.00;;;;;;5052277;28;20116;-68
2023/05/11 11:27:47;;;;;;;5.25;2.25;;;19.70;51.20;;;;;;5052454;28;20032;-67
2023/05/11 11:30:17;;;;;;;5.50;3.78;;;19.70;51.50;;;;;;5052229;28;20040;-68
2023/05/11 11:32:43;;;;;;;3.20;2.05;;;19.70;51.60;;;;;;5052028;28;20446;-68
2023/05/11 11:35:40;;;;;;;2.47;2.17;;;19.70;51.40;;;;;;5052391;28;20025;-68
2023/05/11 11:38:13;;;;;;;3.40;2.22;;;19.70;50.10;;;;;;5052131;28;20026;-68
2023/05/11 11:40:39;;;;;;;11.23;2.08;;;19.50;50.80;;;;;;5052118;28;20029;-68
2023/05/11 11:43:24;;;;;;;6.57;2.10;;;19.50;50.10;;;;;;5051372;28;20082;-68
2023/05/11 11:45:59;;;;;;;5.20;2.05;;;19.60;50.10;;;;;;5052562;28;20052;-68
2023/05/11 11:48:32;;;;;;;4.07;2.30;;;19.60;50.40;;;;;;5052058;28;20078;-68
2023/05/11 11:51:10;;;;;;;5.20;1.77;;;19.70;50.60;;;;;;5052373;28;20063;-68
2023/05/11 11:53:45;;;;;;;5.43;2.03;;;19.70;50.50;;;;;;5052081;28;20021;-68
2023/05/11 11:56:13;;;;;;;3.00;1.90;;;19.80;49.90;;;;;;5052130;28;20052;-68
2023/05/11 11:58:42;;;;;;;6.35;1.90;;;19.70;49.30;;;;;;5051360;28;20086;-68
2023/05/11 12:01:09;;;;;;;8.45;2.00;;;19.80;50.00;;;;;;5051838;28;20029;-67
2023/05/11 12:03:35;;;;;;;2.58;1.73;;;19.80;48.90;;;;;;5055592;28;20040;-68
2023/05/11 12:06:03;;;;;;;4.53;2.10;;;19.90;48.90;;;;;;5055842;28;20025;-68
2023/05/11 12:08:31;;;;;;;7.20;1.80;;;19.90;48.90;;;;;;5054619;28;20021;-67
2023/05/11 12:10:58;;;;;;;4.72;1.80;;;19.90;48.70;;;;;;5055793;28;20443;-67
2023/05/11 12:13:24;;;;;;;6.50;2.15;;;19.90;48.80;;;;;;5055581;28;20082;-68
2023/05/11 12:16:07;;;;;;;6.90;1.90;;;19.90;48.40;;;;;;5056160;28;20036;-68
2023/05/11 12:18:33;;;;;;;6.65;1.88;;;20.00;48.40;;;;;;5055733;28;20033;-68
2023/05/11 12:20:58;;;;;;;4.68;1.90;;;20.00;48.30;;;;;;5056089;28;20029;-68
2023/05/11 12:23:25;;;;;;;2.22;1.88;;;20.00;47.60;;;;;;5055396;28;20033;-69
2023/05/11 12:26:07;;;;;;;3.22;1.95;;;20.00;48.00;;;;;;5056023;28;20067;-68
2023/05/11 12:28:33;;;;;;;4.18;1.80;;;20.00;48.10;;;;;;5055253;28;20144;-68
2023/05/11 12:30:58;;;;;;;2.65;1.83;;;20.00;47.80;;;;;;5055807;28;20028;-68
2023/05/11 12:33:25;;;;;;;4.05;2.00;;;20.00;48.10;;;;;;5055283;28;20064;-69
2023/05/11 12:35:55;;;;;;;2.90;1.80;;;19.90;47.90;;;;;;5055800;28;20033;-68
2023/05/11 12:38:21;;;;;;;5.68;2.30;;;20.00;48.00;;;;;;5055975;28;20039;-68
2023/05/11 12:40:48;;;;;;;10.38;2.22;;;20.00;47.90;;;;;;5055237;28;20377;-68
2023/05/11 12:43:20;;;;;;;4.38;1.83;;;20.00;48.20;;;;;;5055542;28;20029;-68
2023/05/11 12:45:46;;;;;;;3.65;2.22;;;20.00;48.20;;;;;;5054674;28;20052;-67
2023/05/11 12:48:12;;;;;;;2.90;1.70;;;20.00;48.50;;;;;;5055090;28;20370;-67
2023/05/11 12:50:42;;;;;;;3.15;2.05;;;20.10;48.70;;;;;;5054874;28;20073;-68
2023/05/11 12:53:18;;;;;;;6.97;2.30;;;20.00;47.30;;;;;;5055529;28;20071;-67